Time;durP1;ratioP1;P1;durP2;ratioP2;P2;SDS_P1;SDS_P2;PMS_P1;PMS_P2;Temp;Humidity;BMP_temperature;BMP_pressure;BME280_temperature;BME280_humidity;BME280_pressure;Samples;Min_cycle;Max_cycle;Signal;HPM_P1;HPM_P2
2023/10/31 00:01:16;;;;;;;0.4;0.3;;;;;;;;;;;;;
2023/10/31 00:03:42;;;;;;;0.2;0.2;;;;;;;;;;;;;
2023/10/31 00:06:07;;;;;;;0.4;0.2;;;;;;;;;;;;;
2023/10/31 00:08:33;;;;;;;0.5;0.3;;;;;;;;;;;;;
2023/10/31 00:11:01;;;;;;;0.3;0.1;;;;;;;;;;;;;
2023/10/31 00:13:26;;;;;;;0.3;0.1;;;;;;;;;;;;;
2023/10/31 00:16:00;;;;;;;0.8;0.2;;;;;;;;;;;;;
2023/10/31 00:18:25;;;;;;;0.3;0.2;;;;;;;;;;;;;
2023/10/31 00:21:00;;;;;;;0.2;0.2;;;;;;;;;;;;;
2023/10/31 00:23:25;;;;;;;0.1;0.1;;;;;;;;;;;;;
2023/10/31 00:25:50;;;;;;;0.2;0.1;;;;;;;;;;;;;
2023/10/31 00:28:15;;;;;;;0.2;0.1;;;;;;;;;;;;;
2023/10/31 00:30:50;;;;;;;0.1;0.1;;;;;;;;;;;;;
2023/10/31 00:33:16;;;;;;;0.4;0.2;;;;;;;;;;;;;
2023/10/31 00:35:41;;;;;;;0.1;0.1;;;;;;;;;;;;;
2023/10/31 00:38:08;;;;;;;0.8;0.1;;;;;;;;;;;;;
2023/10/31 00:40:33;;;;;;;0.1;0.1;;;;;;;;;;;;;
2023/10/31 00:43:00;;;;;;;0.3;0.2;;;;;;;;;;;;;
2023/10/31 00:45:27;;;;;;;0.3;0.3;;;;;;;;;;;;;
2023/10/31 00:47:52;;;;;;;0.8;0.3;;;;;;;;;;;;;
2023/10/31 00:50:17;;;;;;;0.4;0.2;;;;;;;;;;;;;
2023/10/31 00:52:44;;;;;;;0.2;0.2;;;;;;;;;;;;;
2023/10/31 00:55:10;;;;;;;0.3;0.3;;;;;;;;;;;;;
2023/10/31 00:57:35;;;;;;;0.2;0.2;;;;;;;;;;;;;
2023/10/31 01:00:00;;;;;;;0.3;0.2;;;;;;;;;;;;;
2023/10/31 01:02:25;;;;;;;0.5;0.1;;;;;;;;;;;;;
2023/10/31 01:04:51;;;;;;;0;0;;;;;;;;;;;;;
2023/10/31 01:07:18;;;;;;;0.1;0.1;;;;;;;;;;;;;
2023/10/31 01:09:44;;;;;;;1.8;0.2;;;;;;;;;;;;;
2023/10/31 01:12:13;;;;;;;0.1;0.1;;;;;;;;;;;;;
2023/10/31 01:14:37;;;;;;;0.4;0.1;;;;;;;;;;;;;
2023/10/31 01:17:03;;;;;;;0.3;0.2;;;;;;;;;;;;;
2023/10/31 01:19:28;;;;;;;0.3;0.1;;;;;;;;;;;;;
2023/10/31 01:21:54;;;;;;;0.1;0.1;;;;;;;;;;;;;
2023/10/31 01:24:19;;;;;;;0.7;0.3;;;;;;;;;;;;;
2023/10/31 01:26:47;;;;;;;0.4;0.2;;;;;;;;;;;;;
2023/10/31 01:29:12;;;;;;;0.2;0.2;;;;;;;;;;;;;
2023/10/31 01:31:38;;;;;;;0.4;0.2;;;;;;;;;;;;;
2023/10/31 01:34:03;;;;;;;0.3;0.2;;;;;;;;;;;;;
2023/10/31 01:36:31;;;;;;;0.1;0.1;;;;;;;;;;;;;
2023/10/31 01:38:56;;;;;;;0.7;0.4;;;;;;;;;;;;;
2023/10/31 01:41:22;;;;;;;0.4;0.3;;;;;;;;;;;;;
2023/10/31 01:43:48;;;;;;;1.1;0.2;;;;;;;;;;;;;
2023/10/31 01:46:13;;;;;;;0.2;0.1;;;;;;;;;;;;;
2023/10/31 01:48:38;;;;;;;0.1;0.1;;;;;;;;;;;;;
2023/10/31 01:51:07;;;;;;;0.1;0.1;;;;;;;;;;;;;
2023/10/31 01:53:32;;;;;;;0.4;0.2;;;;;;;;;;;;;
2023/10/31 01:56:01;;;;;;;0.2;0.2;;;;;;;;;;;;;
2023/10/31 01:58:29;;;;;;;0.2;0.2;;;;;;;;;;;;;
2023/10/31 02:00:53;;;;;;;0.1;0.1;;;;;;;;;;;;;
2023/10/31 02:03:23;;;;;;;0.4;0.1;;;;;;;;;;;;;
2023/10/31 02:05:51;;;;;;;0.1;0.1;;;;;;;;;;;;;
2023/10/31 02:08:16;;;;;;;0.3;0.1;;;;;;;;;;;;;
2023/10/31 02:10:42;;;;;;;0.1;0.1;;;;;;;;;;;;;
2023/10/31 02:13:07;;;;;;;0.2;0.1;;;;;;;;;;;;;
2023/10/31 02:15:33;;;;;;;0.7;0.1;;;;;;;;;;;;;
2023/10/31 02:17:58;;;;;;;0.5;0.4;;;;;;;;;;;;;
2023/10/31 02:20:27;;;;;;;0.6;0.2;;;;;;;;;;;;;
2023/10/31 02:22:52;;;;;;;0.2;0.2;;;;;;;;;;;;;
2023/10/31 02:25:20;;;;;;;0.1;0.1;;;;;;;;;;;;;
2023/10/31 02:27:44;;;;;;;0.1;0.1;;;;;;;;;;;;;
2023/10/31 02:30:09;;;;;;;0;0;;;;;;;;;;;;;
2023/10/31 02:32:35;;;;;;;0.3;0.1;;;;;;;;;;;;;
2023/10/31 02:35:06;;;;;;;0.2;0.2;;;;;;;;;;;;;
2023/10/31 02:37:36;;;;;;;0.2;0.2;;;;;;;;;;;;;
2023/10/31 02:40:00;;;;;;;0.1;0.1;;;;;;;;;;;;;
2023/10/31 02:42:26;;;;;;;0.1;0.1;;;;;;;;;;;;;
2023/10/31 02:44:51;;;;;;;0.4;0.1;;;;;;;;;;;;;
2023/10/31 02:47:16;;;;;;;0.9;0.3;;;;;;;;;;;;;
2023/10/31 02:49:41;;;;;;;0.5;0.4;;;;;;;;;;;;;
2023/10/31 02:52:08;;;;;;;0.1;0.1;;;;;;;;;;;;;
2023/10/31 02:54:33;;;;;;;0.7;0.2;;;;;;;;;;;;;
2023/10/31 02:57:00;;;;;;;2.1;1;;;;;;;;;;;;;
2023/10/31 02:59:25;;;;;;;0.2;0.2;;;;;;;;;;;;;
2023/10/31 03:01:53;;;;;;;0.4;0.4;;;;;;;;;;;;;
2023/10/31 03:04:18;;;;;;;0.8;0.7;;;;;;;;;;;;;
2023/10/31 03:06:44;;;;;;;0.7;0.7;;;;;;;;;;;;;
2023/10/31 03:09:09;;;;;;;0.6;0.4;;;;;;;;;;;;;
2023/10/31 03:11:35;;;;;;;0.2;0.2;;;;;;;;;;;;;
2023/10/31 03:14:00;;;;;;;0.2;0.1;;;;;;;;;;;;;
2023/10/31 03:16:25;;;;;;;0.1;0.1;;;;;;;;;;;;;
2023/10/31 03:18:51;;;;;;;0.2;0.1;;;;;;;;;;;;;
2023/10/31 03:21:16;;;;;;;1.3;0.3;;;;;;;;;;;;;
2023/10/31 03:23:41;;;;;;;0.2;0.2;;;;;;;;;;;;;
2023/10/31 03:26:09;;;;;;;0.6;0.3;;;;;;;;;;;;;
2023/10/31 03:28:34;;;;;;;0.4;0.2;;;;;;;;;;;;;
2023/10/31 03:31:00;;;;;;;0.1;0.1;;;;;;;;;;;;;
2023/10/31 03:33:27;;;;;;;0.1;0.1;;;;;;;;;;;;;
2023/10/31 03:35:53;;;;;;;0.2;0.2;;;;;;;;;;;;;
2023/10/31 03:38:15;;;;;;;0.2;0.2;;;;;;;;;;;;;
2023/10/31 03:40:41;;;;;;;0.5;0.2;;;;;;;;;;;;;
2023/10/31 03:43:06;;;;;;;0.1;0.1;;;;;;;;;;;;;
2023/10/31 03:45:33;;;;;;;0.3;0.2;;;;;;;;;;;;;
2023/10/31 03:47:58;;;;;;;0.2;0.2;;;;;;;;;;;;;
2023/10/31 03:50:26;;;;;;;0.2;0.2;;;;;;;;;;;;;
2023/10/31 03:52:51;;;;;;;0.1;0.1;;;;;;;;;;;;;
2023/10/31 03:55:18;;;;;;;0.4;0.2;;;;;;;;;;;;;
2023/10/31 03:57:43;;;;;;;0.1;0.1;;;;;;;;;;;;;
2023/10/31 04:02:40;;;;;;;0.2;0.2;;;;;;;10.18;99.60352;924.7562;;;;
2023/10/31 04:05:05;;;;;;;0.2;0.2;;;;;;;10.21;99.66895;924.726;;;;
2023/10/31 04:07:30;;;;;;;0.4;0.2;;;;;;;10.25;99.51953;924.7402;;;;
2023/10/31 04:10:03;;;;;;;0.2;0.2;;;;;;;10.33;98.16699;924.7925;;;;
2023/10/31 04:12:28;;;;;;;0.1;0.1;;;;;;;10.37;97.62891;924.8461;;;;
2023/10/31 04:14:53;;;;;;;0.3;0.3;;;;;;;10.42;97.56152;924.8903;;;;
2023/10/31 04:17:20;;;;;;;0.5;0.2;;;;;;;10.48;97.10547;924.9565;;;;
2023/10/31 04:19:45;;;;;;;0.4;0.3;;;;;;;10.6;96.61816;925.002;;;;
2023/10/31 04:22:10;;;;;;;0.2;0.2;;;;;;;10.62;96.24512;925.0331;;;;
2023/10/31 04:24:36;;;;;;;0;0;;;;;;;10.44;97.4834;924.9769;;;;
2023/10/31 04:27:01;;;;;;;0;0;;;;;;;10.36;98.09277;924.933;;;;
2023/10/31 04:29:26;;;;;;;1.1;0.3;;;;;;;10.45;98.33008;924.9196;;;;
2023/10/31 04:31:52;;;;;;;0.1;0.1;;;;;;;10.52;97.61816;924.9392;;;;
2023/10/31 04:34:20;;;;;;;0.1;0.1;;;;;;;10.59;96.73047;924.9297;;;;
2023/10/31 04:36:45;;;;;;;0.9;0.1;;;;;;;10.55;96.08105;925.0544;;;;
2023/10/31 04:39:11;;;;;;;0.1;0.1;;;;;;;10.47;96.33691;925.1595;;;;
2023/10/31 04:41:39;;;;;;;0.4;0.2;;;;;;;10.47;96.66016;925.2017;;;;
2023/10/31 04:44:05;;;;;;;0.3;0.3;;;;;;;10.44;96.91504;925.2163;;;;
2023/10/31 04:46:33;;;;;;;0.3;0.2;;;;;;;10.37;98.09668;925.2717;;;;
2023/10/31 04:48:58;;;;;;;0.5;0.5;;;;;;;10.36;98.6748;925.3753;;;;
2023/10/31 04:51:23;;;;;;;1;0.9;;;;;;;10.21;99.16699;925.3514;;;;
2023/10/31 04:53:48;;;;;;;1.7;1.6;;;;;;;10.26;99.25879;925.3906;;;;
2023/10/31 04:56:13;;;;;;;1.3;1.2;;;;;;;10.38;98.60156;925.3465;;;;
2023/10/31 04:58:38;;;;;;;1.7;1.5;;;;;;;10.47;97.86621;925.3283;;;;
2023/10/31 05:01:03;;;;;;;0.8;0.8;;;;;;;10.5;97.6709;925.3947;;;;
2023/10/31 05:03:35;;;;;;;0.3;0.3;;;;;;;10.57;96.89746;925.5228;;;;
2023/10/31 05:06:03;;;;;;;0.3;0.3;;;;;;;10.53;96.63867;925.6531;;;;
2023/10/31 05:08:27;;;;;;;0.3;0.3;;;;;;;10.4;97.69238;925.5786;;;;
2023/10/31 05:10:58;;;;;;;0.2;0.2;;;;;;;10.3;98.62891;925.4531;;;;
2023/10/31 05:13:23;;;;;;;0.2;0.2;;;;;;;10.31;99.22363;925.4984;;;;
2023/10/31 05:15:54;;;;;;;0.8;0.3;;;;;;;10.33;99.03418;925.538;;;;
2023/10/31 05:18:21;;;;;;;0.3;0.3;;;;;;;10.29;98.27051;925.6298;;;;
2023/10/31 05:20:46;;;;;;;0.3;0.3;;;;;;;10.25;99.42871;925.5212;;;;
2023/10/31 05:23:11;;;;;;;0.2;0.2;;;;;;;10.3;98.99609;925.508;;;;
2023/10/31 05:25:39;;;;;;;0.6;0.3;;;;;;;10.37;98.75879;925.6019;;;;
2023/10/31 05:28:04;;;;;;;0.4;0.4;;;;;;;10.39;98.06738;925.6319;;;;
2023/10/31 05:30:34;;;;;;;0.4;0.3;;;;;;;10.39;97.91895;925.7465;;;;
2023/10/31 05:33:08;;;;;;;0.4;0.3;;;;;;;10.3;98.9043;925.5844;;;;
2023/10/31 05:35:33;;;;;;;1.4;0.5;;;;;;;10.31;98.92773;925.8206;;;;
2023/10/31 05:38:03;;;;;;;0.7;0.3;;;;;;;10.37;98.61035;925.9281;;;;
2023/10/31 05:40:35;;;;;;;0.7;0.4;;;;;;;10.24;99.85938;925.7958;;;;
2023/10/31 05:43:02;;;;;;;4.6;3.1;;;;;;;10.34;98.94727;925.9133;;;;
2023/10/31 05:45:31;;;;;;;2.1;1.7;;;;;;;10.1;100;925.9014;;;;
2023/10/31 05:47:57;;;;;;;3;1.9;;;;;;;10.18;100;925.8936;;;;
2023/10/31 05:50:32;;;;;;;4.5;2.4;;;;;;;10.27;99.77441;925.8934;;;;
2023/10/31 05:53:04;;;;;;;10.8;3.8;;;;;;;10.33;99.71875;925.8307;;;;
2023/10/31 05:55:35;;;;;;;9.8;3.4;;;;;;;10.46;98.99414;925.8011;;;;
2023/10/31 05:58:00;;;;;;;4.9;1.8;;;;;;;10.37;99.00977;925.8526;;;;
2023/10/31 06:00:25;;;;;;;7.9;3;;;;;;;10.34;99.83691;926.0708;;;;
2023/10/31 06:02:53;;;;;;;19.7;10;;;;;;;10.3;99.64648;926.1119;;;;
2023/10/31 06:05:25;;;;;;;10.2;4.8;;;;;;;10.19;100;926.0502;;;;
2023/10/31 06:07:50;;;;;;;7.2;3.3;;;;;;;10.15;100;926.0808;;;;
2023/10/31 06:10:16;;;;;;;7.5;3.9;;;;;;;10.2;100;926.1097;;;;
2023/10/31 06:12:41;;;;;;;3.4;1.8;;;;;;;10.14;100;926.1978;;;;
2023/10/31 06:15:11;;;;;;;5.7;2.2;;;;;;;9.96;100;926.1067;;;;
2023/10/31 06:17:37;;;;;;;4.8;2.6;;;;;;;9.94;100;926.1197;;;;
2023/10/31 06:20:06;;;;;;;3.3;1.5;;;;;;;9.99;100;926.1471;;;;
2023/10/31 06:22:38;;;;;;;2.6;1.5;;;;;;;9.97;100;926.1806;;;;
2023/10/31 06:25:06;;;;;;;2.1;1.1;;;;;;;10.02;99.74121;926.1328;;;;
2023/10/31 06:27:31;;;;;;;0.6;0.6;;;;;;;9.97;99.19043;926.1075;;;;
2023/10/31 06:29:57;;;;;;;0.8;0.7;;;;;;;10.05;98.34473;926.1428;;;;
2023/10/31 06:32:23;;;;;;;0.5;0.5;;;;;;;10.02;97.7002;926.0922;;;;
2023/10/31 06:34:53;;;;;;;0.8;0.6;;;;;;;9.95;98.00098;926.1919;;;;
2023/10/31 06:37:21;;;;;;;0.8;0.8;;;;;;;10.02;98.88574;926.2807;;;;
2023/10/31 06:39:45;;;;;;;0.9;0.9;;;;;;;10.02;99.16895;926.3889;;;;
2023/10/31 06:42:10;;;;;;;1;0.9;;;;;;;10.04;98.78516;926.3211;;;;
2023/10/31 06:44:40;;;;;;;0.8;0.4;;;;;;;9.92;98.12012;926.2932;;;;
2023/10/31 06:47:05;;;;;;;0.4;0.3;;;;;;;9.7;97.38477;926.3175;;;;
2023/10/31 06:49:31;;;;;;;0.3;0.3;;;;;;;9.7;97.45313;926.2953;;;;
2023/10/31 06:51:59;;;;;;;0.5;0.4;;;;;;;9.65;98.63965;926.3361;;;;
2023/10/31 06:54:24;;;;;;;1.6;1.2;;;;;;;9.64;100;926.3386;;;;
2023/10/31 06:56:49;;;;;;;0.5;0.5;;;;;;;9.66;100;926.425;;;;
2023/10/31 06:59:19;;;;;;;51.5;30.8;;;;;;;9.8;98.98242;926.4662;;;;
2023/10/31 07:01:48;;;;;;;6.1;3.7;;;;;;;9.8;96.73535;926.4742;;;;
2023/10/31 07:04:13;;;;;;;1.8;1.5;;;;;;;9.78;97.62012;926.5204;;;;
2023/10/31 07:06:41;;;;;;;1.3;1.2;;;;;;;9.89;97.6123;926.4922;;;;
2023/10/31 07:09:07;;;;;;;1.1;1;;;;;;;9.95;95.74316;926.4567;;;;
2023/10/31 07:11:36;;;;;;;1.4;0.8;;;;;;;9.95;95.24121;926.5028;;;;
2023/10/31 07:14:05;;;;;;;0.9;0.8;;;;;;;9.94;95.48047;926.5569;;;;
2023/10/31 07:16:31;;;;;;;1.6;1.1;;;;;;;9.94;96.76953;926.6119;;;;
2023/10/31 07:19:01;;;;;;;1.8;1.4;;;;;;;10.02;95.7959;926.676;;;;
2023/10/31 07:21:31;;;;;;;1.5;1;;;;;;;10.04;96.41504;926.6503;;;;
2023/10/31 07:23:56;;;;;;;1.7;1.2;;;;;;;9.99;96.97559;926.555;;;;
2023/10/31 07:26:23;;;;;;;2.7;1.2;;;;;;;10;97.19238;926.5859;;;;
2023/10/31 07:28:48;;;;;;;1.8;1.3;;;;;;;9.95;97.45313;926.4369;;;;
2023/10/31 07:31:17;;;;;;;1.2;1;;;;;;;9.85;98.46875;926.4448;;;;
2023/10/31 07:33:42;;;;;;;1.7;1.2;;;;;;;9.88;98.15723;926.4891;;;;
2023/10/31 07:36:10;;;;;;;0.9;0.9;;;;;;;9.81;98.43555;926.4479;;;;
2023/10/31 07:38:35;;;;;;;0.9;0.8;;;;;;;9.79;97.17969;926.4075;;;;
2023/10/31 07:41:03;;;;;;;0.8;0.8;;;;;;;9.75;96.26855;926.3362;;;;
2023/10/31 07:43:28;;;;;;;0.3;0.3;;;;;;;9.76;93.25293;926.3083;;;;
2023/10/31 07:45:55;;;;;;;0.8;0.8;;;;;;;9.83;95.16992;926.3367;;;;
2023/10/31 07:48:20;;;;;;;1.1;0.9;;;;;;;9.95;95.68652;926.4066;;;;
2023/10/31 07:50:47;;;;;;;1.2;1.1;;;;;;;9.87;95.84082;926.5288;;;;
2023/10/31 07:53:12;;;;;;;1.5;1.2;;;;;;;9.86;97.11621;926.575;;;;
2023/10/31 07:55:41;;;;;;;0.3;0.3;;;;;;;9.82;96.36523;926.5546;;;;
2023/10/31 07:58:08;;;;;;;0.4;0.4;;;;;;;9.84;97.37207;926.5505;;;;
2023/10/31 08:00:39;;;;;;;0.6;0.6;;;;;;;9.95;96.91797;926.6118;;;;
2023/10/31 08:03:08;;;;;;;0.6;0.6;;;;;;;9.95;96.4502;926.6586;;;;
2023/10/31 08:05:34;;;;;;;0.5;0.5;;;;;;;9.94;97.29199;926.6858;;;;
2023/10/31 08:08:01;;;;;;;1.1;1;;;;;;;9.95;97.3623;926.712;;;;
2023/10/31 08:10:30;;;;;;;1.3;1.2;;;;;;;10.08;97.48242;926.6286;;;;
2023/10/31 08:12:59;;;;;;;2.7;2.1;;;;;;;10.09;97.23535;926.7216;;;;
2023/10/31 08:15:25;;;;;;;2.4;1.8;;;;;;;10.22;96.99219;926.7481;;;;
2023/10/31 08:17:52;;;;;;;3.5;2;;;;;;;10.26;97.67285;926.8155;;;;
2023/10/31 08:20:17;;;;;;;1.5;1.4;;;;;;;10.18;97.9375;926.7701;;;;
2023/10/31 08:22:47;;;;;;;0.8;0.8;;;;;;;10.03;97.73438;926.7824;;;;
2023/10/31 08:25:17;;;;;;;1.1;0.9;;;;;;;9.86;98.75586;926.87;;;;
2023/10/31 08:27:47;;;;;;;0.9;0.8;;;;;;;9.79;99.74414;926.8748;;;;
2023/10/31 08:30:12;;;;;;;1.3;0.9;;;;;;;9.87;99.14746;927.0408;;;;
2023/10/31 08:32:40;;;;;;;1.1;0.8;;;;;;;10.08;97.90625;927.1766;;;;
2023/10/31 08:35:05;;;;;;;1.1;0.8;;;;;;;10.1;94.99023;927.2392;;;;
2023/10/31 08:37:37;;;;;;;2.8;0.7;;;;;;;10.1;95.56055;927.3283;;;;
2023/10/31 08:40:06;;;;;;;0.6;0.6;;;;;;;10.32;94.62891;927.3114;;;;
2023/10/31 08:42:31;;;;;;;1;0.9;;;;;;;10.41;94.53223;927.2463;;;;
2023/10/31 08:44:56;;;;;;;2.8;2;;;;;;;10.49;95.45215;927.2619;;;;
2023/10/31 08:47:28;;;;;;;1.7;1.1;;;;;;;10.59;94.62891;927.2681;;;;
2023/10/31 08:49:52;;;;;;;1.2;1.1;;;;;;;10.69;94.0459;927.3639;;;;
2023/10/31 08:52:17;;;;;;;1;1;;;;;;;10.61;93.29688;927.3977;;;;
2023/10/31 08:54:45;;;;;;;1.4;1.2;;;;;;;10.65;94.54004;927.428;;;;
2023/10/31 08:57:10;;;;;;;0.8;0.8;;;;;;;10.73;94.55957;927.5092;;;;
2023/10/31 08:59:39;;;;;;;0.9;0.8;;;;;;;10.85;92.91504;927.5483;;;;
2023/10/31 09:02:03;;;;;;;1.4;0.8;;;;;;;10.76;92.33594;927.5567;;;;
2023/10/31 09:04:33;;;;;;;0.6;0.6;;;;;;;10.77;93.0127;927.5988;;;;
2023/10/31 09:06:58;;;;;;;1.3;0.8;;;;;;;10.86;93.28516;927.713;;;;
2023/10/31 09:09:26;;;;;;;1.1;1;;;;;;;11.08;92.98926;927.8292;;;;
2023/10/31 09:11:55;;;;;;;0.8;0.8;;;;;;;11.08;92.72559;927.8116;;;;
2023/10/31 09:14:20;;;;;;;0.8;0.8;;;;;;;11.23;92.06836;927.8209;;;;
2023/10/31 09:16:48;;;;;;;1.1;1;;;;;;;11.35;91.68555;927.7494;;;;
2023/10/31 09:19:13;;;;;;;0.8;0.8;;;;;;;11.48;91.05859;927.7603;;;;
2023/10/31 09:21:38;;;;;;;1.3;1.2;;;;;;;11.35;91.12305;927.7861;;;;
2023/10/31 09:24:05;;;;;;;1.5;1.2;;;;;;;11.39;90.53613;927.8455;;;;
2023/10/31 09:26:30;;;;;;;2.2;1.2;;;;;;;11.25;91.54883;927.8406;;;;
2023/10/31 09:28:56;;;;;;;1.4;1.1;;;;;;;11.36;91.95117;927.9016;;;;
2023/10/31 09:31:22;;;;;;;1.3;1.2;;;;;;;11.43;91.4834;927.933;;;;
2023/10/31 09:33:49;;;;;;;1.4;1.3;;;;;;;11.48;90.60254;927.9802;;;;
2023/10/31 09:36:15;;;;;;;1.2;0.9;;;;;;;11.5;89.57617;928.0198;;;;
2023/10/31 09:38:44;;;;;;;1;0.9;;;;;;;11.57;89.28223;928.0215;;;;
2023/10/31 09:41:13;;;;;;;1.4;0.8;;;;;;;11.78;88.48926;927.962;;;;
2023/10/31 09:43:38;;;;;;;2.1;0.9;;;;;;;11.84;87.6875;928.0505;;;;
2023/10/31 09:46:04;;;;;;;1.2;0.7;;;;;;;11.94;85.25586;928.0547;;;;
2023/10/31 09:48:29;;;;;;;1.3;0.6;;;;;;;12.02;86.21094;928.0086;;;;
2023/10/31 09:50:57;;;;;;;0.6;0.6;;;;;;;12.06;84.03223;928.0192;;;;
2023/10/31 09:53:22;;;;;;;0.9;0.8;;;;;;;12.04;84.28027;928.0306;;;;
2023/10/31 09:55:50;;;;;;;0.7;0.7;;;;;;;12.14;83.41699;928.0884;;;;
2023/10/31 09:58:15;;;;;;;0.8;0.6;;;;;;;12.16;82.26367;928.14;;;;
2023/10/31 10:00:40;;;;;;;2.4;1.7;;;;;;;12.29;81.64551;928.1043;;;;
2023/10/31 10:03:05;;;;;;;0.7;0.7;;;;;;;12.32;82.39551;928.087;;;;
2023/10/31 10:05:33;;;;;;;1.7;1.1;;;;;;;12.27;83.22363;928.1588;;;;
2023/10/31 10:07:58;;;;;;;1.2;1.1;;;;;;;12.11;83.83594;928.1574;;;;
2023/10/31 10:10:29;;;;;;;1.5;1.3;;;;;;;11.98;85.87207;928.1731;;;;
2023/10/31 10:12:54;;;;;;;0.8;0.8;;;;;;;;;;;;;
2023/10/31 10:15:19;;;;;;;1;0.9;;;;;;;;;;;;;
2023/10/31 10:17:48;;;;;;;2.1;1.8;;;;;;;;;;;;;
2023/10/31 10:20:13;;;;;;;1.7;1.6;;;;;;;;;;;;;
2023/10/31 10:22:38;;;;;;;1.4;1.3;;;;;;;;;;;;;
2023/10/31 10:25:03;;;;;;;0.6;0.6;;;;;;;;;;;;;
2023/10/31 10:27:28;;;;;;;1;0.7;;;;;;;;;;;;;
2023/10/31 10:29:56;;;;;;;0.7;0.7;;;;;;;;;;;;;
2023/10/31 10:32:20;;;;;;;1;0.8;;;;;;;;;;;;;
2023/10/31 10:34:45;;;;;;;0.8;0.7;;;;;;;;;;;;;
2023/10/31 10:37:11;;;;;;;0.9;0.6;;;;;;;;;;;;;
2023/10/31 10:39:37;;;;;;;0.8;0.6;;;;;;;;;;;;;
2023/10/31 10:42:03;;;;;;;0.8;0.6;;;;;;;;;;;;;
2023/10/31 10:44:29;;;;;;;0.8;0.5;;;;;;;;;;;;;
2023/10/31 10:46:55;;;;;;;0.9;0.7;;;;;;;;;;;;;
2023/10/31 10:49:20;;;;;;;0.5;0.5;;;;;;;;;;;;;
2023/10/31 10:51:46;;;;;;;3.4;2.1;;;;;;;;;;;;;
2023/10/31 10:54:11;;;;;;;2.3;1.9;;;;;;;;;;;;;
2023/10/31 10:56:37;;;;;;;0.6;0.5;;;;;;;;;;;;;
2023/10/31 10:59:03;;;;;;;1.7;1;;;;;;;;;;;;;
2023/10/31 11:01:29;;;;;;;1.1;0.8;;;;;;;;;;;;;
2023/10/31 11:03:54;;;;;;;0.6;0.6;;;;;;;;;;;;;
2023/10/31 11:06:19;;;;;;;0.5;0.5;;;;;;;;;;;;;
2023/10/31 11:08:45;;;;;;;1.4;0.5;;;;;;;;;;;;;
2023/10/31 11:11:10;;;;;;;0.9;0.7;;;;;;;;;;;;;
2023/10/31 11:13:35;;;;;;;0.4;0.4;;;;;;;;;;;;;
2023/10/31 11:16:00;;;;;;;0.5;0.5;;;;;;;;;;;;;
2023/10/31 11:18:27;;;;;;;0.3;0.3;;;;;;;;;;;;;
2023/10/31 11:20:51;;;;;;;0.3;0.3;;;;;;;;;;;;;
2023/10/31 11:23:20;;;;;;;0.5;0.4;;;;;;;;;;;;;
2023/10/31 11:25:45;;;;;;;0.4;0.3;;;;;;;;;;;;;
2023/10/31 11:28:09;;;;;;;1.1;0.4;;;;;;;;;;;;;
2023/10/31 11:30:34;;;;;;;1;0.3;;;;;;;;;;;;;
2023/10/31 11:33:03;;;;;;;1;0.3;;;;;;;;;;;;;
2023/10/31 11:35:27;;;;;;;0.5;0.5;;;;;;;;;;;;;
2023/10/31 11:37:54;;;;;;;0.5;0.5;;;;;;;;;;;;;
2023/10/31 11:40:19;;;;;;;1.2;1;;;;;;;;;;;;;
2023/10/31 11:42:46;;;;;;;3.4;2.2;;;;;;;;;;;;;
2023/10/31 11:45:12;;;;;;;11;7;;;;;;;;;;;;;
2023/10/31 11:47:37;;;;;;;4.2;3.2;;;;;;;;;;;;;
2023/10/31 11:50:02;;;;;;;1.8;1.5;;;;;;;;;;;;;
2023/10/31 11:52:30;;;;;;;1.3;1.2;;;;;;;;;;;;;
2023/10/31 11:54:55;;;;;;;2.4;2;;;;;;;;;;;;;
2023/10/31 11:57:22;;;;;;;1.3;1.2;;;;;;;;;;;;;
2023/10/31 11:59:47;;;;;;;2.3;2.1;;;;;;;;;;;;;
2023/10/31 12:02:14;;;;;;;0.6;0.6;;;;;;;;;;;;;
2023/10/31 12:04:39;;;;;;;1.1;0.5;;;;;;;;;;;;;
2023/10/31 12:07:05;;;;;;;1.1;0.4;;;;;;;;;;;;;
2023/10/31 12:09:29;;;;;;;1.5;0.7;;;;;;;;;;;;;
2023/10/31 12:11:55;;;;;;;0.5;0.3;;;;;;;;;;;;;
2023/10/31 12:14:20;;;;;;;0.5;0.5;;;;;;;;;;;;;
2023/10/31 12:16:46;;;;;;;4.3;0.9;;;;;;;;;;;;;
2023/10/31 12:19:13;;;;;;;0.5;0.5;;;;;;;;;;;;;
2023/10/31 12:21:38;;;;;;;0.3;0.3;;;;;;;;;;;;;
2023/10/31 12:24:03;;;;;;;0.5;0.5;;;;;;;;;;;;;
2023/10/31 12:26:29;;;;;;;1.4;0.4;;;;;;;;;;;;;
2023/10/31 12:28:57;;;;;;;0.9;0.5;;;;;;;;;;;;;
2023/10/31 12:31:22;;;;;;;0.6;0.6;;;;;;;;;;;;;
2023/10/31 12:33:47;;;;;;;1.3;0.6;;;;;;;;;;;;;
2023/10/31 12:36:12;;;;;;;1.1;0.5;;;;;;;;;;;;;
2023/10/31 12:38:37;;;;;;;0.6;0.6;;;;;;;;;;;;;
2023/10/31 12:41:02;;;;;;;0.8;0.8;;;;;;;;;;;;;
2023/10/31 12:43:29;;;;;;;1.2;0.8;;;;;;;;;;;;;
2023/10/31 12:45:58;;;;;;;1.7;0.7;;;;;;;;;;;;;
2023/10/31 12:48:20;;;;;;;1;0.9;;;;;;;;;;;;;
2023/10/31 12:50:45;;;;;;;1;0.8;;;;;;;;;;;;;
2023/10/31 12:53:11;;;;;;;3;2.2;;;;;;;;;;;;;
2023/10/31 12:55:35;;;;;;;2.3;2.1;;;;;;;;;;;;;
2023/10/31 12:58:02;;;;;;;1.1;1;;;;;;;;;;;;;
2023/10/31 13:00:28;;;;;;;1.3;0.7;;;;;;;;;;;;;
2023/10/31 13:02:56;;;;;;;0.8;0.8;;;;;;;;;;;;;
2023/10/31 13:05:21;;;;;;;2;0.9;;;;;;;;;;;;;
2023/10/31 13:07:46;;;;;;;1;0.7;;;;;;;;;;;;;
2023/10/31 13:10:13;;;;;;;0.7;0.7;;;;;;;;;;;;;
2023/10/31 13:12:38;;;;;;;0.8;0.8;;;;;;;;;;;;;
2023/10/31 13:15:10;;;;;;;0.8;0.8;;;;;;;;;;;;;
2023/10/31 13:17:37;;;;;;;1.2;0.8;;;;;;;;;;;;;
2023/10/31 13:20:03;;;;;;;0.7;0.7;;;;;;;;;;;;;
2023/10/31 13:22:29;;;;;;;0.7;0.6;;;;;;;;;;;;;
2023/10/31 13:24:54;;;;;;;0.4;0.4;;;;;;;;;;;;;
2023/10/31 13:27:20;;;;;;;1.4;0.5;;;;;;;;;;;;;
2023/10/31 13:29:45;;;;;;;0.5;0.5;;;;;;;;;;;;;
2023/10/31 13:32:11;;;;;;;0.7;0.4;;;;;;;;;;;;;
2023/10/31 13:34:35;;;;;;;0.4;0.4;;;;;;;;;;;;;
2023/10/31 13:37:02;;;;;;;0.5;0.4;;;;;;;;;;;;;
2023/10/31 13:39:27;;;;;;;0.3;0.3;;;;;;;;;;;;;
2023/10/31 13:41:53;;;;;;;0.4;0.4;;;;;;;;;;;;;
2023/10/31 13:44:18;;;;;;;0.4;0.4;;;;;;;;;;;;;
2023/10/31 13:46:45;;;;;;;0.3;0.3;;;;;;;;;;;;;
2023/10/31 13:49:12;;;;;;;0.5;0.3;;;;;;;;;;;;;
2023/10/31 13:51:36;;;;;;;0.5;0.5;;;;;;;;;;;;;
2023/10/31 13:54:02;;;;;;;0.6;0.6;;;;;;;;;;;;;
2023/10/31 13:56:26;;;;;;;0.5;0.5;;;;;;;;;;;;;
2023/10/31 13:58:52;;;;;;;0.8;0.6;;;;;;;;;;;;;
2023/10/31 14:01:17;;;;;;;2.2;0.8;;;;;;;;;;;;;
2023/10/31 14:03:43;;;;;;;0.7;0.6;;;;;;;;;;;;;
2023/10/31 14:06:08;;;;;;;0.7;0.3;;;;;;;;;;;;;
2023/10/31 14:08:36;;;;;;;1.6;0.8;;;;;;;;;;;;;
2023/10/31 14:11:02;;;;;;;0.4;0.4;;;;;;;;;;;;;
2023/10/31 14:13:29;;;;;;;0.3;0.3;;;;;;;;;;;;;
2023/10/31 14:15:54;;;;;;;0.6;0.6;;;;;;;;;;;;;
2023/10/31 14:18:20;;;;;;;1.2;0.6;;;;;;;;;;;;;
2023/10/31 14:20:45;;;;;;;1;0.6;;;;;;;;;;;;;
2023/10/31 14:23:10;;;;;;;1.3;0.5;;;;;;;;;;;;;
2023/10/31 14:25:35;;;;;;;17.3;8;;;;;;;;;;;;;
2023/10/31 14:28:04;;;;;;;23;15.1;;;;;;;;;;;;;
2023/10/31 14:30:28;;;;;;;6.9;5.2;;;;;;;;;;;;;
2023/10/31 14:32:54;;;;;;;3.1;2.5;;;;;;;;;;;;;
2023/10/31 14:35:18;;;;;;;4.3;1.5;;;;;;;;;;;;;
2023/10/31 14:37:44;;;;;;;1.2;1.1;;;;;;;;;;;;;
2023/10/31 14:40:09;;;;;;;1;0.9;;;;;;;;;;;;;
2023/10/31 14:42:38;;;;;;;1.1;1;;;;;;;;;;;;;
2023/10/31 14:45:03;;;;;;;1;0.8;;;;;;;;;;;;;
2023/10/31 14:47:29;;;;;;;1.2;1;;;;;;;;;;;;;
2023/10/31 14:49:54;;;;;;;4;3.1;;;;;;;;;;;;;
2023/10/31 14:52:20;;;;;;;1.9;1.6;;;;;;;;;;;;;
2023/10/31 14:54:44;;;;;;;1.9;1.6;;;;;;;;;;;;;
2023/10/31 14:57:11;;;;;;;1.7;1.6;;;;;;;;;;;;;
2023/10/31 14:59:37;;;;;;;19.2;13.4;;;;;;;;;;;;;
2023/10/31 15:02:03;;;;;;;7.1;5.5;;;;;;;;;;;;;
2023/10/31 15:04:27;;;;;;;2.3;1.1;;;;;;;;;;;;;
2023/10/31 15:06:54;;;;;;;5.8;2.8;;;;;;;;;;;;;
2023/10/31 15:09:20;;;;;;;3.1;1.9;;;;;;;;;;;;;
2023/10/31 15:11:46;;;;;;;3.4;1.9;;;;;;;;;;;;;
2023/10/31 15:14:11;;;;;;;4;2.5;;;;;;;;;;;;;
2023/10/31 15:16:37;;;;;;;3.7;2.8;;;;;;;;;;;;;
2023/10/31 15:19:02;;;;;;;3.4;1.9;;;;;;;;;;;;;
2023/10/31 15:21:28;;;;;;;2.2;1.7;;;;;;;;;;;;;
2023/10/31 15:23:56;;;;;;;6.7;4.8;;;;;;;;;;;;;
2023/10/31 15:26:19;;;;;;;12.7;9;;;;;;;;;;;;;
2023/10/31 15:28:44;;;;;;;1;0.9;;;;;;;;;;;;;
2023/10/31 15:31:09;;;;;;;2.2;1.6;;;;;;;;;;;;;
2023/10/31 15:33:35;;;;;;;0.9;0.9;;;;;;;;;;;;;
2023/10/31 15:36:00;;;;;;;1.2;1;;;;;;;;;;;;;
2023/10/31 15:38:28;;;;;;;1.1;1;;;;;;;;;;;;;
2023/10/31 15:40:53;;;;;;;1.8;1.2;;;;;;;;;;;;;
2023/10/31 15:43:19;;;;;;;2.1;1.8;;;;;;;;;;;;;
2023/10/31 15:45:45;;;;;;;1.4;1;;;;;;;;;;;;;
2023/10/31 15:48:11;;;;;;;0.9;0.9;;;;;;;;;;;;;
2023/10/31 15:50:41;;;;;;;1.5;0.9;;;;;;;;;;;;;
2023/10/31 15:53:08;;;;;;;1.6;1.2;;;;;;;;;;;;;
2023/10/31 15:55:32;;;;;;;2.8;1.9;;;;;;;;;;;;;
2023/10/31 15:57:57;;;;;;;3.3;2.3;;;;;;;;;;;;;
2023/10/31 16:00:22;;;;;;;4.9;2.9;;;;;;;;;;;;;
2023/10/31 16:02:47;;;;;;;3.3;2.3;;;;;;;;;;;;;
2023/10/31 16:05:17;;;;;;;4.5;2.6;;;;;;;;;;;;;
2023/10/31 16:07:44;;;;;;;4.1;2.6;;;;;;;;;;;;;
2023/10/31 16:10:09;;;;;;;3.1;2.6;;;;;;;;;;;;;
2023/10/31 16:12:35;;;;;;;3.2;2.9;;;;;;;;;;;;;
2023/10/31 16:15:00;;;;;;;3.4;2.9;;;;;;;;;;;;;
2023/10/31 16:17:28;;;;;;;4;2.5;;;;;;;;;;;;;
2023/10/31 16:19:53;;;;;;;3.2;2.4;;;;;;;;;;;;;
2023/10/31 16:22:24;;;;;;;3.3;1.9;;;;;;;;;;;;;
2023/10/31 16:24:51;;;;;;;2.1;1.6;;;;;;;;;;;;;
2023/10/31 16:27:13;;;;;;;2.2;2;;;;;;;;;;;;;
2023/10/31 16:29:46;;;;;;;2.4;1.7;;;;;;;;;;;;;
2023/10/31 16:32:14;;;;;;;2.8;1.7;;;;;;;;;;;;;
2023/10/31 16:34:43;;;;;;;3.3;2;;;;;;;;;;;;;
2023/10/31 16:37:00;;;;;;;2.8;1.9;;;;;;;;;;;;;
2023/10/31 16:39:25;;;;;;;2.3;2;;;;;;;;;;;;;
2023/10/31 16:41:51;;;;;;;2.6;2.3;;;;;;;;;;;;;
2023/10/31 16:44:16;;;;;;;3.5;2.9;;;;;;;;;;;;;
2023/10/31 16:46:41;;;;;;;11.8;6.1;;;;;;;;;;;;;
2023/10/31 16:49:07;;;;;;;8.9;5;;;;;;;;;;;;;
2023/10/31 16:51:31;;;;;;;8.6;4.8;;;;;;;;;;;;;
2023/10/31 16:53:58;;;;;;;6.7;4.4;;;;;;;;;;;;;
2023/10/31 16:56:24;;;;;;;5.1;3.7;;;;;;;;;;;;;
2023/10/31 16:58:49;;;;;;;8.7;5.5;;;;;;;;;;;;;
2023/10/31 17:01:14;;;;;;;8.9;5.7;;;;;;;;;;;;;
2023/10/31 17:03:40;;;;;;;12.3;7.4;;;;;;;;;;;;;
2023/10/31 17:06:06;;;;;;;9.8;6.3;;;;;;;;;;;;;
2023/10/31 17:08:32;;;;;;;2.5;2.1;;;;;;;;;;;;;
2023/10/31 17:10:56;;;;;;;5.2;3.3;;;;;;;;;;;;;
2023/10/31 17:13:22;;;;;;;4.5;3.4;;;;;;;;;;;;;
2023/10/31 17:15:47;;;;;;;3.2;2.8;;;;;;;;;;;;;
2023/10/31 17:18:15;;;;;;;4.2;3.4;;;;;;;;;;;;;
2023/10/31 17:20:42;;;;;;;5;3.4;;;;;;;;;;;;;
2023/10/31 17:23:07;;;;;;;5;3.7;;;;;;;;;;;;;
2023/10/31 17:25:33;;;;;;;11;6.2;;;;;;;;;;;;;
2023/10/31 17:27:58;;;;;;;6.5;4.1;;;;;;;;;;;;;
2023/10/31 17:30:27;;;;;;;7.2;4.1;;;;;;;;;;;;;
2023/10/31 17:32:52;;;;;;;7.7;3.9;;;;;;;;;;;;;
2023/10/31 17:35:20;;;;;;;5.5;3.6;;;;;;;;;;;;;
2023/10/31 17:37:46;;;;;;;6.2;4.8;;;;;;;;;;;;;
2023/10/31 17:40:15;;;;;;;6.9;4.2;;;;;;;;;;;;;
2023/10/31 17:42:40;;;;;;;6.5;5.3;;;;;;;;;;;;;
2023/10/31 17:45:05;;;;;;;5.4;4.1;;;;;;;;;;;;;
2023/10/31 17:47:30;;;;;;;5.1;3.7;;;;;;;;;;;;;
2023/10/31 17:49:55;;;;;;;6.8;5.1;;;;;;;;;;;;;
2023/10/31 17:52:23;;;;;;;4.2;3.1;;;;;;;;;;;;;
2023/10/31 17:54:46;;;;;;;3;2.7;;;;;;;;;;;;;
2023/10/31 17:57:11;;;;;;;2.3;2.1;;;;;;;;;;;;;
2023/10/31 17:59:37;;;;;;;3.7;2.2;;;;;;;;;;;;;
2023/10/31 18:02:02;;;;;;;2.4;2.2;;;;;;;;;;;;;
2023/10/31 18:04:27;;;;;;;2.2;2;;;;;;;;;;;;;